Terminal Aerodrome Forecast
Issued by NWS

Home | Current Version | Previous Version | Graphics & Text | Print | Product List | Glossary On
Versions: 1 2 3 4 5 6 7 8 9 10 11 12 13 14 15 16 17 18 19 20 21 22 23 24 25
117
FTUS43 KBIS 182333
TAFJMS
TAF
KJMS 182333Z 1900/1924 VRB05KT P6SM FEW250
     FM190800 13007KT 4SM BR BKN050
     FM190900 13011KT 1SM BR BKN008
     FM191100 13014KT 1/4SM FG OVC003
     FM191300 14017KT 3/4SM BR OVC005
     FM191500 15019G28KT P6SM OVC008
     FM191600 15020G29KT P6SM -SHRA OVC060
      TEMPO 1921/1924 2SM +TSRAGS BKN040CB=

USA.gov is the U.S. government's official web portal to all federal, state and local government web resources and services.